Time;durP1;ratioP1;P1;durP2;ratioP2;P2;SDS_P1;SDS_P2;PMS_P1;PMS_P2;Temp;Humidity;BMP_temperature;BMP_pressure;BME280_temperature;BME280_humidity;BME280_pressure;Samples;Min_cycle;Max_cycle;Signal;HPM_P1;HPM_P2
2022/07/15 00:00:36;;;;;;;1999.90;999.90;;;21.60;87.70;;;;;;5055484;28;20029;-74
2022/07/15 00:03:02;;;;;;;1999.90;999.90;;;21.60;88.10;;;;;;5057091;28;20029;-74
2022/07/15 00:05:28;;;;;;;1999.90;999.90;;;21.50;88.70;;;;;;5053719;28;20473;-74
2022/07/15 00:07:54;;;;;;;1999.90;999.90;;;21.50;89.00;;;;;;5053500;28;20116;-74
2022/07/15 00:10:21;;;;;;;1999.90;999.90;;;21.40;89.50;;;;;;5048818;28;20053;-74
2022/07/15 00:12:55;;;;;;;1999.90;999.90;;;21.30;90.00;;;;;;5048354;28;20013;-74
2022/07/15 00:15:26;;;;;;;1999.90;999.90;;;21.30;90.20;;;;;;5053078;28;20488;-74
2022/07/15 00:17:52;;;;;;;1999.90;999.90;;;21.20;90.40;;;;;;5053156;28;20021;-74
2022/07/15 00:20:19;;;;;;;1999.90;999.90;;;21.20;90.60;;;;;;5053362;28;20048;-74
2022/07/15 00:22:45;;;;;;;1999.90;999.90;;;21.20;90.80;;;;;;5052855;28;20116;-74
2022/07/15 00:25:12;;;;;;;1999.90;999.90;;;21.10;91.00;;;;;;5053335;28;20519;-74
2022/07/15 00:27:56;;;;;;;1999.90;999.90;;;21.10;91.20;;;;;;5053161;28;20547;-74
2022/07/15 00:30:22;;;;;;;1999.90;999.90;;;21.10;91.20;;;;;;5052470;28;20519;-74
2022/07/15 00:32:49;;;;;;;1999.90;999.90;;;21.10;91.40;;;;;;5040423;28;20024;-74
2022/07/15 00:35:14;;;;;;;1999.90;999.90;;;21.00;91.80;;;;;;5040718;28;20021;-74
2022/07/15 00:37:40;;;;;;;1999.90;999.90;;;21.00;91.70;;;;;;5053099;28;20373;-74
2022/07/15 00:40:06;;;;;;;1999.90;999.90;;;21.00;91.90;;;;;;5053059;28;20037;-74
2022/07/15 00:42:47;;;;;;;1999.90;999.90;;;20.90;92.00;;;;;;5052952;28;20025;-74
2022/07/15 00:45:18;;;;;;;1999.90;999.90;;;20.90;92.20;;;;;;5048089;28;20074;-74
2022/07/15 00:47:46;;;;;;;1999.90;999.90;;;20.80;92.30;;;;;;5052938;28;20289;-74
2022/07/15 00:50:13;;;;;;;1999.90;999.90;;;20.70;92.40;;;;;;5055961;28;20475;-74
2022/07/15 00:52:41;;;;;;;1999.90;999.90;;;20.70;92.70;;;;;;5062231;28;20059;-74
2022/07/15 00:55:10;;;;;;;1999.90;999.90;;;20.70;92.90;;;;;;5052894;28;20428;-74
2022/07/15 00:57:42;;;;;;;1999.90;999.90;;;20.60;93.00;;;;;;5052862;28;20017;-74
2022/07/15 01:00:11;;;;;;;1999.90;999.90;;;20.60;93.20;;;;;;5052790;28;20061;-73
2022/07/15 01:02:43;;;;;;;1999.90;999.90;;;20.50;93.30;;;;;;5050976;28;20025;-73
2022/07/15 01:05:10;;;;;;;1999.90;999.90;;;20.50;93.40;;;;;;5051277;28;20102;-74
2022/07/15 01:07:38;;;;;;;1999.90;999.90;;;20.50;93.60;;;;;;5052912;28;20067;-74
2022/07/15 01:10:05;;;;;;;1999.90;999.90;;;20.50;93.70;;;;;;5052487;28;20032;-74
2022/07/15 01:12:32;;;;;;;1999.90;999.90;;;20.40;93.80;;;;;;5052482;28;20032;-73
2022/07/15 01:14:57;;;;;;;1999.90;999.90;;;20.40;94.00;;;;;;5052410;28;20075;-74
2022/07/15 01:17:25;;;;;;;1999.90;999.90;;;20.30;94.10;;;;;;5052514;28;20033;-73
2022/07/15 01:19:50;;;;;;;1999.90;999.90;;;20.30;94.30;;;;;;5052602;28;20052;-74
2022/07/15 01:22:16;;;;;;;1999.90;999.90;;;20.20;94.40;;;;;;5052340;28;20479;-74
2022/07/15 01:24:42;;;;;;;1999.90;999.90;;;20.20;94.60;;;;;;5052320;28;20043;-74
2022/07/15 01:27:07;;;;;;;1999.90;999.90;;;20.10;94.70;;;;;;5052651;28;20103;-73
2022/07/15 01:29:33;;;;;;;1999.90;999.90;;;20.10;94.80;;;;;;5033812;28;20104;-73
2022/07/15 01:31:58;;;;;;;1999.90;999.90;;;20.10;94.90;;;;;;5052044;28;20041;-73
2022/07/15 01:34:24;;;;;;;1999.90;999.90;;;20.10;95.00;;;;;;5045334;28;20480;-74
2022/07/15 01:36:50;;;;;;;1999.90;999.90;;;20.00;95.00;;;;;;5046047;28;20499;-73
2022/07/15 01:39:15;;;;;;;1999.90;999.90;;;20.00;95.00;;;;;;5052289;28;20480;-74
2022/07/15 01:41:41;;;;;;;1999.90;999.90;;;20.00;95.10;;;;;;5044683;28;20033;-73
2022/07/15 01:44:06;;;;;;;1999.90;999.90;;;20.00;95.10;;;;;;5052440;28;20114;-74
2022/07/15 01:46:32;;;;;;;1999.90;999.90;;;20.00;95.20;;;;;;5052437;28;20476;-74
2022/07/15 01:51:42;;;;;;;1999.90;999.90;;;19.90;95.20;;;;;;5064982;28;20126;-74
2022/07/15 01:54:07;;;;;;;1999.90;999.90;;;19.90;95.20;;;;;;5052091;28;20025;-74
2022/07/15 01:56:36;;;;;;;1999.90;999.90;;;19.80;95.30;;;;;;5052284;28;20040;-74
2022/07/15 01:59:01;;;;;;;1999.90;999.90;;;19.80;95.40;;;;;;5055827;28;20465;-74
2022/07/15 02:01:27;;;;;;;1999.90;999.90;;;19.70;95.50;;;;;;5044003;28;20124;-74
2022/07/15 02:03:53;;;;;;;1999.90;999.90;;;19.70;95.60;;;;;;5054380;28;20040;-74
2022/07/15 02:06:18;;;;;;;1999.90;999.90;;;19.70;95.70;;;;;;5055785;28;20031;-73
2022/07/15 02:08:44;;;;;;;1999.90;999.90;;;19.70;95.80;;;;;;5055671;28;20460;-73
2022/07/15 02:11:11;;;;;;;1999.90;999.90;;;19.60;95.80;;;;;;5046712;28;20105;-73
2022/07/15 02:13:36;;;;;;;1999.90;999.90;;;19.60;95.90;;;;;;5056073;28;20538;-74
2022/07/15 02:16:02;;;;;;;1999.90;999.90;;;19.50;95.70;;;;;;5055862;28;20017;-74
2022/07/15 02:18:28;;;;;;;1999.90;999.90;;;19.50;95.70;;;;;;5055338;28;20025;-74
2022/07/15 02:20:54;;;;;;;1999.90;999.90;;;19.50;95.70;;;;;;5055733;28;20033;-74
2022/07/15 02:23:19;;;;;;;1999.90;999.90;;;19.50;95.80;;;;;;5055559;28;20029;-74
2022/07/15 02:25:45;;;;;;;1999.90;999.90;;;19.50;95.90;;;;;;5055436;28;20013;-73
2022/07/15 02:28:11;;;;;;;1999.90;999.90;;;19.40;95.80;;;;;;5055757;28;20063;-74
2022/07/15 02:30:39;;;;;;;1999.90;999.90;;;19.40;95.90;;;;;;5054424;28;20095;-74
2022/07/15 02:33:05;;;;;;;1999.90;999.90;;;19.30;95.90;;;;;;5039118;28;20036;-74
2022/07/15 02:35:31;;;;;;;1999.90;999.90;;;19.40;95.90;;;;;;5055432;28;20044;-74
2022/07/15 02:37:59;;;;;;;1999.90;999.90;;;19.40;95.90;;;;;;5052732;28;20040;-74
2022/07/15 02:40:25;;;;;;;1999.90;999.90;;;19.30;95.90;;;;;;5050304;28;20384;-74
2022/07/15 02:42:53;;;;;;;1999.90;999.90;;;19.30;96.00;;;;;;5055173;28;20476;-74
2022/07/15 02:45:20;;;;;;;1999.90;999.90;;;19.30;96.00;;;;;;5055240;28;20135;-74
2022/07/15 02:47:47;;;;;;;1999.90;999.90;;;19.30;96.10;;;;;;5054872;28;20021;-74
2022/07/15 02:50:14;;;;;;;1999.90;999.90;;;19.30;96.20;;;;;;5051592;28;20036;-74
2022/07/15 02:52:41;;;;;;;1999.90;999.90;;;19.20;96.10;;;;;;5064503;28;20033;-74
2022/07/15 02:55:08;;;;;;;1999.90;999.90;;;19.20;96.20;;;;;;5054295;28;20054;-74
2022/07/15 02:57:33;;;;;;;1999.90;999.90;;;19.20;96.30;;;;;;5055010;28;20029;-74
2022/07/15 02:59:59;;;;;;;1999.90;999.90;;;19.20;96.40;;;;;;5054920;28;20075;-74
2022/07/15 03:02:25;;;;;;;1999.90;999.90;;;19.10;96.40;;;;;;5052932;28;20033;-73
2022/07/15 03:04:51;;;;;;;1999.90;999.90;;;19.10;96.60;;;;;;5052853;28;20383;-73
2022/07/15 03:07:17;;;;;;;1999.90;999.90;;;19.00;96.70;;;;;;5054852;28;20028;-74
2022/07/15 03:09:42;;;;;;;1999.90;999.90;;;19.00;96.90;;;;;;5054479;28;20071;-74
2022/07/15 03:12:08;;;;;;;1999.90;999.90;;;18.90;97.00;;;;;;5046690;28;20044;-74
2022/07/15 03:14:34;;;;;;;1999.90;999.90;;;18.90;97.20;;;;;;5054670;28;20021;-73
2022/07/15 03:16:59;;;;;;;1999.90;999.90;;;18.80;97.30;;;;;;5054721;28;20496;-74
2022/07/15 03:19:25;;;;;;;1999.90;999.90;;;18.80;97.40;;;;;;5054565;28;20048;-74
2022/07/15 03:21:50;;;;;;;1999.90;999.90;;;18.70;97.60;;;;;;5054552;28;20108;-73
2022/07/15 03:24:16;;;;;;;1999.90;999.90;;;18.70;97.70;;;;;;5054318;28;20032;-73
2022/07/15 03:26:42;;;;;;;1999.90;999.90;;;18.60;97.80;;;;;;5054775;28;20032;-73
2022/07/15 03:29:09;;;;;;;1999.90;999.90;;;18.60;98.00;;;;;;5054251;28;20021;-73
2022/07/15 03:31:35;;;;;;;1999.90;999.90;;;18.50;98.10;;;;;;5054440;28;20052;-73
2022/07/15 03:34:00;;;;;;;1999.90;999.90;;;18.40;98.30;;;;;;5052433;28;20075;-74
2022/07/15 03:36:26;;;;;;;1999.90;999.90;;;18.40;98.50;;;;;;5054458;28;20028;-74
2022/07/15 03:38:52;;;;;;;1999.90;999.90;;;18.40;98.70;;;;;;5045736;28;20014;-73
2022/07/15 03:41:19;;;;;;;1999.90;999.90;;;18.30;98.80;;;;;;5054413;28;20075;-73
2022/07/15 03:43:44;;;;;;;1999.90;999.90;;;18.20;98.90;;;;;;5054040;28;20033;-74
2022/07/15 03:46:10;;;;;;;1999.90;999.90;;;18.20;99.10;;;;;;5053340;28;20082;-73
2022/07/15 03:48:36;;;;;;;1999.90;999.90;;;18.20;99.30;;;;;;5053245;28;20021;-73
2022/07/15 03:51:02;;;;;;;1999.90;999.90;;;18.10;99.40;;;;;;5057240;28;20485;-73
2022/07/15 03:53:27;;;;;;;1999.90;999.90;;;18.10;99.60;;;;;;5056485;28;20060;-73
2022/07/15 03:55:53;;;;;;;1999.90;999.90;;;18.00;99.70;;;;;;5053986;28;20058;-74
2022/07/15 03:58:19;;;;;;;1999.90;999.90;;;18.00;99.80;;;;;;5053900;28;20116;-74
2022/07/15 04:00:45;;;;;;;1999.90;999.90;;;18.00;99.90;;;;;;5056156;28;20030;-73
2022/07/15 04:03:10;;;;;;;1999.90;999.90;;;18.00;99.90;;;;;;5055577;28;20079;-73
2022/07/15 04:05:38;;;;;;;1999.90;999.90;;;17.90;99.90;;;;;;5051865;28;20051;-73
2022/07/15 04:08:04;;;;;;;1999.90;999.90;;;17.90;99.90;;;;;;5053850;28;20017;-73
2022/07/15 04:10:31;;;;;;;1999.90;999.90;;;17.90;99.90;;;;;;5053185;28;20396;-73
2022/07/15 04:12:57;;;;;;;1999.90;999.90;;;17.90;99.90;;;;;;5053378;28;20017;-73
2022/07/15 04:15:22;;;;;;;1999.90;999.90;;;17.80;99.90;;;;;;5053200;28;20381;-74
2022/07/15 04:17:48;;;;;;;1999.90;999.90;;;17.80;99.90;;;;;;5053294;28;20043;-73
2022/07/15 04:20:14;;;;;;;1999.90;999.90;;;17.80;99.90;;;;;;5052863;28;20068;-73
2022/07/15 04:22:46;;;;;;;1999.90;999.90;;;17.90;99.90;;;;;;5053163;28;20550;-73
2022/07/15 04:25:17;;;;;;;1999.90;999.90;;;17.80;99.90;;;;;;5053248;28;20116;-73
2022/07/15 04:27:43;;;;;;;1999.90;999.90;;;17.80;99.90;;;;;;5051407;28;20504;-73
2022/07/15 04:30:09;;;;;;;1999.90;999.90;;;17.80;99.90;;;;;;5035032;28;20119;-73
2022/07/15 04:32:35;;;;;;;1999.90;999.90;;;17.80;99.90;;;;;;5051285;28;20037;-73
2022/07/15 04:35:02;;;;;;;1999.90;999.90;;;17.80;99.90;;;;;;5042508;28;20041;-73
2022/07/15 04:37:28;;;;;;;1999.90;999.90;;;17.70;99.90;;;;;;5051137;28;20044;-73
2022/07/15 04:39:54;;;;;;;1999.90;999.90;;;17.70;99.90;;;;;;5052667;28;20488;-74
2022/07/15 04:42:21;;;;;;;1999.90;999.90;;;17.70;99.90;;;;;;5044565;28;20104;-73
2022/07/15 04:44:47;;;;;;;1999.90;999.90;;;17.60;99.90;;;;;;5052890;28;20067;-73
2022/07/15 04:47:13;;;;;;;1999.90;999.90;;;17.60;99.90;;;;;;5052285;28;20052;-73
2022/07/15 04:52:24;;;;;;;1999.90;999.90;;;17.70;99.90;;;;;;5041193;28;20036;-74
2022/07/15 04:54:50;;;;;;;1999.90;999.90;;;17.70;99.90;;;;;;5052557;28;20119;-73
2022/07/15 04:57:17;;;;;;;1999.90;999.90;;;17.80;99.90;;;;;;5052734;28;20511;-73
2022/07/15 04:59:43;;;;;;;1999.90;999.90;;;17.80;99.90;;;;;;5052774;28;20060;-73
2022/07/15 05:02:09;;;;;;;1999.90;999.90;;;17.90;99.90;;;;;;5051974;28;20068;-73
2022/07/15 05:04:34;;;;;;;1999.90;999.90;;;17.90;99.90;;;;;;5051560;28;20029;-74
2022/07/15 05:07:00;;;;;;;1999.90;999.90;;;18.00;99.90;;;;;;5052897;28;20388;-74
2022/07/15 05:09:27;;;;;;;1999.90;999.90;;;18.00;99.90;;;;;;5051890;28;20400;-74
2022/07/15 05:11:52;;;;;;;1999.90;999.90;;;18.10;99.90;;;;;;5043149;28;20040;-74
2022/07/15 05:14:18;;;;;;;1999.90;999.90;;;18.10;99.90;;;;;;5052681;28;20029;-74
2022/07/15 05:16:44;;;;;;;1999.90;999.90;;;18.10;99.90;;;;;;5052252;28;20033;-74
2022/07/15 05:19:09;;;;;;;1999.90;999.90;;;18.20;99.90;;;;;;5052602;28;20072;-73
2022/07/15 05:21:35;;;;;;;1999.90;999.90;;;18.20;99.90;;;;;;5051918;28;20503;-73
2022/07/15 05:24:01;;;;;;;1999.90;999.90;;;18.20;99.90;;;;;;5052504;28;20079;-73
2022/07/15 05:26:26;;;;;;;1999.90;999.90;;;18.30;99.90;;;;;;5052590;28;20017;-73
2022/07/15 05:28:52;;;;;;;1999.90;999.90;;;18.40;99.90;;;;;;5051922;28;20033;-73
2022/07/15 05:31:18;;;;;;;1999.90;999.90;;;18.40;99.90;;;;;;5051607;28;20393;-73
2022/07/15 05:33:43;;;;;;;1999.90;999.90;;;18.40;99.90;;;;;;5053549;28;20028;-74
2022/07/15 05:36:13;;;;;;;1999.90;999.90;;;18.40;99.90;;;;;;5056111;28;20045;-73
2022/07/15 05:38:40;;;;;;;1999.90;999.90;;;18.50;99.90;;;;;;5048523;28;20049;-73
2022/07/15 05:41:06;;;;;;;1999.90;999.90;;;18.50;99.90;;;;;;5056043;28;20033;-73
2022/07/15 05:43:32;;;;;;;1999.90;999.90;;;18.50;99.90;;;;;;5056343;28;20032;-74
2022/07/15 05:45:57;;;;;;;1999.90;999.90;;;18.60;99.90;;;;;;5056360;28;20519;-74
2022/07/15 05:48:23;;;;;;;1999.90;999.90;;;18.60;99.90;;;;;;5055527;28;20388;-74
2022/07/15 05:50:49;;;;;;;1999.90;999.90;;;18.70;99.90;;;;;;5057680;28;20025;-73
2022/07/15 05:53:15;;;;;;;1999.90;999.90;;;18.70;99.90;;;;;;5060690;28;20025;-73
2022/07/15 05:55:41;;;;;;;1999.90;999.90;;;18.70;99.90;;;;;;5054789;28;20036;-73
2022/07/15 05:58:08;;;;;;;1999.90;999.90;;;18.70;99.90;;;;;;5056274;28;20029;-74
2022/07/15 06:00:34;;;;;;;1999.90;999.90;;;18.80;99.90;;;;;;5057295;28;20036;-73
2022/07/15 06:03:01;;;;;;;1999.90;999.90;;;18.90;99.90;;;;;;5059120;28;20063;-73
2022/07/15 06:05:28;;;;;;;1999.90;999.90;;;18.90;99.90;;;;;;5054170;28;20021;-74
2022/07/15 06:07:54;;;;;;;1999.90;999.90;;;18.90;99.90;;;;;;5055898;28;20112;-73
2022/07/15 06:10:20;;;;;;;1999.90;999.90;;;19.00;99.90;;;;;;5055384;28;20024;-74
2022/07/15 06:12:46;;;;;;;1999.90;999.90;;;19.00;99.80;;;;;;5055580;28;20029;-73
2022/07/15 06:15:11;;;;;;;1999.90;999.90;;;19.10;99.90;;;;;;5056022;28;20033;-74
2022/07/15 06:17:38;;;;;;;1999.90;999.90;;;19.10;99.90;;;;;;5055289;28;20396;-74
2022/07/15 06:20:05;;;;;;;1999.90;999.90;;;19.10;99.90;;;;;;5055715;28;20029;-74
2022/07/15 06:22:30;;;;;;;1999.90;999.90;;;19.10;99.80;;;;;;5055256;28;20025;-74
2022/07/15 06:24:56;;;;;;;1999.90;999.90;;;19.20;99.90;;;;;;5055237;28;20086;-74
2022/07/15 06:27:21;;;;;;;1999.90;999.90;;;19.20;99.80;;;;;;5054987;28;20025;-73
2022/07/15 06:29:51;;;;;;;1999.90;999.90;;;19.30;99.80;;;;;;5055490;28;20094;-74
2022/07/15 06:32:18;;;;;;;1999.90;999.90;;;19.40;99.70;;;;;;5054086;28;20033;-73
2022/07/15 06:34:44;;;;;;;1999.90;999.90;;;19.60;99.50;;;;;;5046360;28;20037;-73
2022/07/15 06:37:10;;;;;;;1999.90;999.90;;;19.70;99.30;;;;;;5050774;28;20032;-74
2022/07/15 06:39:36;;;;;;;1999.90;999.90;;;19.80;99.20;;;;;;5054945;28;20084;-74
2022/07/15 06:42:02;;;;;;;1999.90;999.90;;;20.00;99.00;;;;;;5046669;28;20508;-74
2022/07/15 06:44:28;;;;;;;1999.90;999.90;;;20.20;98.50;;;;;;5054877;28;20021;-73
2022/07/15 06:46:53;;;;;;;1999.90;999.90;;;20.40;97.90;;;;;;5055005;28;20475;-73
2022/07/15 06:49:19;;;;;;;1999.90;999.90;;;20.50;97.40;;;;;;5052521;28;20040;-74
2022/07/15 06:51:45;;;;;;;1999.90;999.90;;;20.70;97.10;;;;;;5063618;28;20028;-74
2022/07/15 06:54:11;;;;;;;1999.90;999.90;;;20.90;96.50;;;;;;5054935;28;20434;-73
2022/07/15 06:56:38;;;;;;;1999.90;999.90;;;21.00;96.40;;;;;;5054892;28;20408;-74
2022/07/15 06:59:04;;;;;;;1999.90;999.90;;;21.00;96.10;;;;;;5055161;28;20498;-73
2022/07/15 07:01:29;;;;;;;1999.90;999.90;;;21.10;96.00;;;;;;5050299;28;20021;-74
2022/07/15 07:03:55;;;;;;;1999.90;999.90;;;21.20;95.90;;;;;;5052095;28;20112;-74
2022/07/15 07:06:22;;;;;;;1999.90;999.90;;;21.40;95.60;;;;;;5053455;28;20021;-74
2022/07/15 07:08:48;;;;;;;1999.90;999.90;;;21.40;95.20;;;;;;5054344;28;20086;-74
2022/07/15 07:11:17;;;;;;;1999.90;999.90;;;21.50;95.20;;;;;;5054214;28;20021;-73
2022/07/15 07:13:43;;;;;;;1999.90;999.90;;;21.70;95.00;;;;;;5053268;28;20040;-74
2022/07/15 07:16:08;;;;;;;1999.90;999.90;;;21.80;94.70;;;;;;5054373;28;20025;-74
2022/07/15 07:18:34;;;;;;;1999.90;999.90;;;21.90;94.40;;;;;;5053968;28;20104;-74
2022/07/15 07:21:01;;;;;;;1999.90;999.90;;;22.00;94.20;;;;;;5053612;28;20131;-73
2022/07/15 07:23:27;;;;;;;1999.90;999.90;;;22.20;94.00;;;;;;5052041;28;20040;-73
2022/07/15 07:25:53;;;;;;;1999.90;999.90;;;22.30;93.60;;;;;;5051433;28;20021;-74
2022/07/15 07:28:20;;;;;;;1999.90;999.90;;;22.50;93.50;;;;;;5053733;28;20013;-74
2022/07/15 07:30:46;;;;;;;1999.90;999.90;;;22.70;93.20;;;;;;5052399;28;20037;-74
2022/07/15 07:33:12;;;;;;;1999.90;999.90;;;22.70;92.70;;;;;;5052446;28;20040;-74
2022/07/15 07:35:39;;;;;;;1999.90;999.90;;;22.70;92.70;;;;;;5052383;28;20078;-74
2022/07/15 07:38:04;;;;;;;1999.90;999.90;;;22.90;92.60;;;;;;5053698;28;20031;-74
2022/07/15 07:40:30;;;;;;;1999.90;999.90;;;23.20;92.10;;;;;;5050618;28;20037;-74
2022/07/15 07:42:56;;;;;;;1999.90;999.90;;;24.10;91.30;;;;;;5052991;28;20033;-74
2022/07/15 07:45:25;;;;;;;1999.90;999.90;;;26.00;88.00;;;;;;5053935;28;20025;-74
2022/07/15 07:47:51;;;;;;;1999.90;999.90;;;27.30;83.80;;;;;;5053240;28;20051;-74
2022/07/15 07:50:17;;;;;;;1999.90;999.90;;;28.10;82.00;;;;;;5052680;28;20088;-74
2022/07/15 07:52:43;;;;;;;1999.90;999.90;;;28.30;80.60;;;;;;5054977;28;20075;-74
2022/07/15 07:55:09;;;;;;;1999.90;999.90;;;28.80;80.00;;;;;;5052452;28;20492;-75
2022/07/15 07:57:35;;;;;;;1999.90;999.90;;;28.90;79.10;;;;;;5053413;28;20045;-75
2022/07/15 08:00:02;;;;;;;1999.90;999.90;;;29.30;78.50;;;;;;5053105;28;20029;-74
2022/07/15 08:02:28;;;;;;;1999.90;999.90;;;29.70;77.20;;;;;;5051012;28;21019;-74
2022/07/15 08:04:54;;;;;;;1999.90;999.90;;;30.30;76.10;;;;;;5053044;28;20025;-74
2022/07/15 08:07:20;;;;;;;1999.90;999.90;;;30.40;76.00;;;;;;5052947;28;20025;-74
2022/07/15 08:09:45;;;;;;;1999.90;999.90;;;30.80;74.70;;;;;;5052884;28;20021;-74
2022/07/15 08:12:11;;;;;;;1999.90;999.90;;;31.10;75.00;;;;;;5052540;28;20613;-75
2022/07/15 08:14:37;;;;;;;1999.90;999.90;;;31.50;74.20;;;;;;5051841;28;20039;-75
2022/07/15 08:17:02;;;;;;;1999.90;999.90;;;32.00;73.60;;;;;;5052579;28;20024;-75
2022/07/15 08:19:28;;;;;;;1999.90;999.90;;;32.10;73.10;;;;;;5052249;28;20029;-75
2022/07/15 08:21:54;;;;;;;1999.90;999.90;;;32.10;72.10;;;;;;5042690;28;20025;-72
2022/07/15 08:24:19;;;;;;;1999.90;999.90;;;32.70;71.50;;;;;;5052758;28;20029;-73
2022/07/15 08:26:45;;;;;;;1999.90;999.90;;;32.90;71.40;;;;;;5047349;28;20464;-73
2022/07/15 08:29:11;;;;;;;1999.90;999.90;;;32.60;71.50;;;;;;5052103;28;20044;-73
2022/07/15 08:31:37;;;;;;;1999.90;999.90;;;33.20;71.20;;;;;;5051592;28;20068;-73
2022/07/15 08:34:04;;;;;;;1999.90;999.90;;;33.30;70.80;;;;;;5050768;28;20491;-73
2022/07/15 08:36:30;;;;;;;1999.90;999.90;;;33.90;69.90;;;;;;5052043;28;20087;-73
2022/07/15 08:38:56;;;;;;;1999.90;999.90;;;33.90;70.00;;;;;;5050971;28;20017;-73
2022/07/15 08:41:22;;;;;;;1999.90;999.90;;;34.40;69.50;;;;;;5052423;28;20510;-73
2022/07/15 08:43:48;;;;;;;1999.90;999.90;;;35.40;68.30;;;;;;5052389;28;20503;-73
2022/07/15 08:46:15;;;;;;;1999.90;999.90;;;35.20;68.10;;;;;;5052356;28;20025;-73
2022/07/15 08:48:47;;;;;;;1999.90;999.90;;;35.30;68.10;;;;;;5051392;28;20064;-73
2022/07/15 08:51:13;;;;;;;1999.90;999.90;;;35.80;67.60;;;;;;5053626;28;20025;-73
2022/07/15 08:53:39;;;;;;;1999.90;999.90;;;36.00;67.20;;;;;;5034183;28;20499;-73
2022/07/15 08:56:05;;;;;;;1999.90;999.90;;;35.80;67.30;;;;;;5050303;28;20106;-73
2022/07/15 08:58:35;;;;;;;1999.90;999.90;;;36.30;67.00;;;;;;5051838;28;20032;-73
2022/07/15 09:01:00;;;;;;;1999.90;999.90;;;36.70;67.10;;;;;;5051985;28;20508;-73
2022/07/15 09:03:26;;;;;;;1999.90;999.90;;;36.90;66.20;;;;;;5050076;28;20060;-73
2022/07/15 09:05:51;;;;;;;1999.90;999.90;;;36.70;65.90;;;;;;5051447;28;20529;-73
2022/07/15 09:08:19;;;;;;;1999.90;999.90;;;36.90;66.30;;;;;;5051768;28;20021;-73
2022/07/15 09:10:53;;;;;;;1999.90;999.90;;;36.30;66.60;;;;;;5051773;28;20024;-73
2022/07/15 09:13:33;;;;;;;1999.90;999.90;;;36.50;66.20;;;;;;5033932;28;20025;-73
2022/07/15 09:16:10;;;;;;;1999.90;999.90;;;36.30;66.00;;;;;;5046810;28;20031;-73
2022/07/15 09:18:38;;;;;;;1999.90;999.90;;;36.30;66.70;;;;;;5051162;28;21237;-73
2022/07/15 09:21:14;;;;;;;1999.90;999.90;;;35.80;66.20;;;;;;5052180;28;20411;-73
2022/07/15 09:23:40;;;;;;;1999.90;999.90;;;36.50;66.70;;;;;;5051077;28;20102;-74
2022/07/15 09:26:26;;;;;;;1999.90;999.90;;;36.30;66.40;;;;;;5053070;28;20025;-73
2022/07/15 09:28:52;;;;;;;1999.90;999.90;;;36.70;66.00;;;;;;5045807;28;20220;-73
2022/07/15 09:34:21;;;;;;;1999.90;999.90;;;37.10;65.20;;;;;;5045769;28;20512;-73
2022/07/15 09:36:52;;;;;;;1999.90;999.90;;;36.80;65.40;;;;;;5052268;28;20033;-74
2022/07/15 09:39:19;;;;;;;1999.90;999.90;;;37.10;65.80;;;;;;5051410;28;20033;-73
2022/07/15 09:41:45;;;;;;;1999.90;999.90;;;36.70;65.50;;;;;;5050506;28;20082;-73
2022/07/15 09:44:33;;;;;;;1999.90;999.90;;;37.20;66.00;;;;;;5051640;28;20067;-73
2022/07/15 09:47:01;;;;;;;1999.90;999.90;;;37.20;65.10;;;;;;5051578;28;20396;-73
2022/07/15 09:49:27;;;;;;;1999.90;999.90;;;36.90;65.10;;;;;;5040109;28;20057;-73
2022/07/15 09:51:56;;;;;;;1999.90;999.90;;;37.70;65.30;;;;;;5049330;28;20108;-73
2022/07/15 09:54:30;;;;;;;1999.90;999.90;;;37.20;64.40;;;;;;5051095;28;20079;-73
2022/07/15 09:56:58;;;;;;;1999.90;999.90;;;37.60;64.80;;;;;;5051735;28;20154;-73
2022/07/15 09:59:24;;;;;;;1999.90;999.90;;;37.30;64.80;;;;;;5043320;28;20030;-73
2022/07/15 10:01:50;;;;;;;1999.90;999.90;;;37.30;64.70;;;;;;5057478;28;20092;-73
2022/07/15 10:04:22;;;;;;;1999.90;999.90;;;37.30;64.60;;;;;;5049844;28;20083;-73
2022/07/15 10:06:49;;;;;;;;;;;37.40;64.10;;;;;;5051741;28;20476;-73
2022/07/15 10:09:14;;;;;;;1999.90;999.90;;;37.20;63.70;;;;;;5051055;28;19909;-73
2022/07/15 10:11:47;;;;;;;1999.90;999.90;;;37.10;64.40;;;;;;5051301;28;20051;-73
2022/07/15 10:14:19;;;;;;;1999.90;999.90;;;37.90;64.40;;;;;;5050816;28;20022;-73
2022/07/15 10:16:47;;;;;;;1999.90;999.90;;;37.50;63.80;;;;;;5051156;28;20118;-73
2022/07/15 10:19:13;;;;;;;1999.90;999.90;;;37.10;63.40;;;;;;5053029;28;20423;-73
2022/07/15 10:21:54;;;;;;;1999.90;999.90;;;37.30;64.30;;;;;;5054385;28;20044;-73
2022/07/15 10:24:31;;;;;;;1999.90;999.90;;;37.10;64.10;;;;;;5054802;28;20100;-73
2022/07/15 10:27:22;;;;;;;1999.90;999.90;;;37.10;64.90;;;;;;5054691;28;20115;-73
2022/07/15 10:29:50;;;;;;;1999.90;999.90;;;37.00;63.30;;;;;;5049829;28;20577;-73
2022/07/15 10:32:15;;;;;;;1999.90;999.90;;;37.60;64.30;;;;;;5053337;28;20323;-73
2022/07/15 10:34:41;;;;;;;1999.90;999.90;;;37.60;63.40;;;;;;5053174;28;20064;-73
2022/07/15 10:37:11;;;;;;;1999.90;999.90;;;37.10;62.00;;;;;;5055003;28;20025;-73
2022/07/15 10:39:58;;;;;;;1999.90;999.90;;;37.50;64.30;;;;;;5053953;28;20021;-73
2022/07/15 10:42:24;;;;;;;1999.90;999.90;;;38.20;63.20;;;;;;5054271;28;20583;-73
2022/07/15 10:45:00;;;;;;;1999.90;999.90;;;37.70;60.90;;;;;;5054073;28;20021;-73
2022/07/15 10:47:26;;;;;;;1999.90;999.90;;;37.90;62.70;;;;;;5054134;28;20028;-73
2022/07/15 10:49:52;;;;;;;1999.90;999.90;;;37.80;61.90;;;;;;5053945;28;20017;-73
2022/07/15 10:52:17;;;;;;;1999.90;999.90;;;37.80;62.20;;;;;;5054681;28;20056;-74
2022/07/15 10:55:04;;;;;;;1999.90;999.90;;;37.20;62.40;;;;;;5054499;28;20059;-73
2022/07/15 10:57:44;;;;;;;1999.90;999.90;;;37.20;62.90;;;;;;5048603;28;20037;-73
2022/07/15 11:00:26;;;;;;;1999.90;999.90;;;37.30;62.30;;;;;;5053578;28;20052;-73
2022/07/15 11:03:29;;;;;;;1999.90;999.90;;;37.80;61.60;;;;;;5052559;28;20115;-73
2022/07/15 11:05:56;;;;;;;1999.90;999.90;;;38.30;61.50;;;;;;5050206;28;20150;-73
2022/07/15 11:08:33;;;;;;;1999.90;999.90;;;37.70;61.90;;;;;;5053604;28;20025;-73
2022/07/15 11:11:14;;;;;;;1999.90;999.90;;;37.80;62.80;;;;;;5048522;28;20159;-73
2022/07/15 11:13:41;;;;;;;1999.90;999.90;;;37.90;61.50;;;;;;5054425;28;20032;-73
2022/07/15 11:16:12;;;;;;;1999.90;999.90;;;37.90;59.80;;;;;;5053558;28;20126;-73
2022/07/15 11:18:52;;;;;;;1999.90;999.90;;;37.50;60.70;;;;;;5053295;28;20025;-73
2022/07/15 11:21:19;;;;;;;1999.90;999.90;;;37.20;58.40;;;;;;5053475;28;20286;-73
2022/07/15 11:23:46;;;;;;;1999.90;999.90;;;37.50;57.80;;;;;;5053723;28;20377;-73
2022/07/15 11:26:12;;;;;;;1999.90;999.90;;;37.70;59.00;;;;;;5053437;28;20064;-73
2022/07/15 11:28:38;;;;;;;1999.90;999.90;;;37.80;58.30;;;;;;5053340;28;20033;-73
2022/07/15 11:31:03;;;;;;;1999.90;999.90;;;37.80;58.20;;;;;;5052236;28;20041;-73
2022/07/15 11:33:30;;;;;;;1999.90;999.90;;;37.70;58.60;;;;;;5051828;28;20123;-73
2022/07/15 11:35:59;;;;;;;1999.90;999.90;;;37.50;59.50;;;;;;5053807;28;20025;-73
2022/07/15 11:38:28;;;;;;;1999.90;999.90;;;37.60;57.60;;;;;;5053101;28;20466;-72
2022/07/15 11:46:26;;;;;;;1999.90;999.90;;;37.50;59.50;;;;;;5053690;28;20102;-73
2022/07/15 11:48:52;;;;;;;1999.90;999.90;;;37.60;58.80;;;;;;5053347;28;20052;-73
2022/07/15 11:51:28;;;;;;;1999.90;999.90;;;37.10;59.10;;;;;;5054748;28;20061;-73
2022/07/15 11:53:55;;;;;;;1999.90;999.90;;;36.30;59.50;;;;;;5053110;28;20404;-74
2022/07/15 11:56:21;;;;;;;1999.90;999.90;;;36.30;60.00;;;;;;5053439;28;20032;-73
2022/07/15 11:58:51;;;;;;;1999.90;999.90;;;36.20;60.10;;;;;;5052688;28;20025;-73
2022/07/15 12:01:24;;;;;;;1999.90;999.90;;;36.10;60.70;;;;;;5052448;28;20032;-73
2022/07/15 12:03:52;;;;;;;1999.90;999.90;;;35.80;59.20;;;;;;5051417;28;20029;-73
2022/07/15 12:06:21;;;;;;;1999.90;999.90;;;35.60;60.10;;;;;;5050986;28;20021;-72
2022/07/15 12:08:54;;;;;;;1999.90;999.90;;;35.90;60.30;;;;;;5051297;28;20089;-73
2022/07/15 12:11:23;;;;;;;1999.90;999.90;;;36.10;60.40;;;;;;5044618;28;20029;-73
2022/07/15 12:13:51;;;;;;;1999.90;999.90;;;36.40;59.20;;;;;;5053361;28;20028;-73